sensor_id;sensor_type;location;lat;lon;timestamp;P1;durP1;ratioP1;P2;durP2;ratioP2
56868;SDS011;42754;0.000;0.000;2022-11-20T00:01:17;19.58;;;9.15;;
56868;SDS011;42754;0.000;0.000;2022-11-20T00:03:43;13.07;;;7.22;;
56868;SDS011;42754;0.000;0.000;2022-11-20T00:06:10;17.05;;;8.18;;
56868;SDS011;42754;0.000;0.000;2022-11-20T00:08:37;18.85;;;8.18;;
56868;SDS011;42754;0.000;0.000;2022-11-20T00:11:04;15.73;;;7.88;;
56868;SDS011;42754;0.000;0.000;2022-11-20T00:13:30;19.42;;;8.23;;
56868;SDS011;42754;0.000;0.000;2022-11-20T00:15:57;15.27;;;8.00;;
56868;SDS011;42754;0.000;0.000;2022-11-20T00:18:24;14.68;;;7.05;;
56868;SDS011;42754;0.000;0.000;2022-11-20T00:20:50;14.65;;;7.22;;
56868;SDS011;42754;0.000;0.000;2022-11-20T00:23:16;14.63;;;7.25;;
56868;SDS011;42754;0.000;0.000;2022-11-20T00:25:42;20.90;;;8.73;;
56868;SDS011;42754;0.000;0.000;2022-11-20T00:28:08;14.13;;;7.75;;
56868;SDS011;42754;0.000;0.000;2022-11-20T00:30:35;14.77;;;7.95;;
56868;SDS011;42754;0.000;0.000;2022-11-20T00:33:01;13.48;;;7.45;;
56868;SDS011;42754;0.000;0.000;2022-11-20T00:35:28;18.50;;;7.68;;
56868;SDS011;42754;0.000;0.000;2022-11-20T00:37:54;14.20;;;7.70;;
56868;SDS011;42754;0.000;0.000;2022-11-20T00:40:21;15.10;;;7.85;;
56868;SDS011;42754;0.000;0.000;2022-11-20T00:42:47;17.38;;;8.13;;
56868;SDS011;42754;0.000;0.000;2022-11-20T00:45:13;16.40;;;8.35;;
56868;SDS011;42754;0.000;0.000;2022-11-20T00:47:39;16.60;;;7.22;;
56868;SDS011;42754;0.000;0.000;2022-11-20T00:50:05;19.30;;;7.65;;
56868;SDS011;42754;0.000;0.000;2022-11-20T00:52:31;17.70;;;8.20;;
56868;SDS011;42754;0.000;0.000;2022-11-20T00:54:57;16.40;;;7.55;;
56868;SDS011;42754;0.000;0.000;2022-11-20T00:57:23;14.95;;;7.85;;
56868;SDS011;42754;0.000;0.000;2022-11-20T00:59:49;19.17;;;8.18;;
56868;SDS011;42754;0.000;0.000;2022-11-20T01:02:15;18.23;;;8.00;;
56868;SDS011;42754;0.000;0.000;2022-11-20T01:04:42;17.48;;;7.90;;
56868;SDS011;42754;0.000;0.000;2022-11-20T01:07:08;20.48;;;8.70;;
56868;SDS011;42754;0.000;0.000;2022-11-20T01:09:34;12.70;;;6.85;;
56868;SDS011;42754;0.000;0.000;2022-11-20T01:12:00;14.13;;;6.72;;
56868;SDS011;42754;0.000;0.000;2022-11-20T01:14:26;19.50;;;9.10;;
56868;SDS011;42754;0.000;0.000;2022-11-20T01:16:52;17.80;;;8.45;;
56868;SDS011;42754;0.000;0.000;2022-11-20T01:19:21;17.33;;;8.27;;
56868;SDS011;42754;0.000;0.000;2022-11-20T01:21:48;16.35;;;7.45;;
56868;SDS011;42754;0.000;0.000;2022-11-20T01:24:16;16.27;;;8.57;;
56868;SDS011;42754;0.000;0.000;2022-11-20T01:26:43;14.57;;;7.65;;
56868;SDS011;42754;0.000;0.000;2022-11-20T01:29:13;22.17;;;9.15;;
56868;SDS011;42754;0.000;0.000;2022-11-20T01:31:40;16.52;;;7.13;;
56868;SDS011;42754;0.000;0.000;2022-11-20T01:34:07;17.33;;;8.10;;
56868;SDS011;42754;0.000;0.000;2022-11-20T01:36:35;16.27;;;8.55;;
56868;SDS011;42754;0.000;0.000;2022-11-20T01:39:06;18.15;;;8.18;;
56868;SDS011;42754;0.000;0.000;2022-11-20T01:41:33;18.40;;;8.63;;
56868;SDS011;42754;0.000;0.000;2022-11-20T01:44:22;15.00;;;7.30;;
56868;SDS011;42754;0.000;0.000;2022-11-20T01:47:00;18.75;;;8.90;;
56868;SDS011;42754;0.000;0.000;2022-11-20T01:49:33;15.77;;;8.02;;
56868;SDS011;42754;0.000;0.000;2022-11-20T01:52:02;18.35;;;9.30;;
56868;SDS011;42754;0.000;0.000;2022-11-20T01:54:35;18.65;;;8.32;;
56868;SDS011;42754;0.000;0.000;2022-11-20T01:57:02;18.20;;;7.55;;
56868;SDS011;42754;0.000;0.000;2022-11-20T01:59:29;19.50;;;7.93;;
56868;SDS011;42754;0.000;0.000;2022-11-20T02:01:58;17.25;;;8.70;;
56868;SDS011;42754;0.000;0.000;2022-11-20T02:04:24;17.00;;;8.30;;
56868;SDS011;42754;0.000;0.000;2022-11-20T02:06:57;16.05;;;8.20;;
56868;SDS011;42754;0.000;0.000;2022-11-20T02:09:25;17.60;;;8.55;;
56868;SDS011;42754;0.000;0.000;2022-11-20T02:11:51;18.33;;;9.13;;
56868;SDS011;42754;0.000;0.000;2022-11-20T02:14:17;16.73;;;8.50;;
56868;SDS011;42754;0.000;0.000;2022-11-20T02:16:44;18.13;;;8.63;;
56868;SDS011;42754;0.000;0.000;2022-11-20T02:19:14;19.52;;;8.07;;
56868;SDS011;42754;0.000;0.000;2022-11-20T02:24:22;13.65;;;7.88;;
56868;SDS011;42754;0.000;0.000;2022-11-20T02:26:59;19.27;;;7.93;;
56868;SDS011;42754;0.000;0.000;2022-11-20T02:29:27;18.88;;;7.97;;
56868;SDS011;42754;0.000;0.000;2022-11-20T02:31:53;16.50;;;7.97;;
56868;SDS011;42754;0.000;0.000;2022-11-20T02:34:20;21.40;;;9.20;;
56868;SDS011;42754;0.000;0.000;2022-11-20T02:36:46;17.17;;;7.40;;
56868;SDS011;42754;0.000;0.000;2022-11-20T02:39:14;19.50;;;8.50;;
56868;SDS011;42754;0.000;0.000;2022-11-20T02:41:42;18.23;;;8.80;;
56868;SDS011;42754;0.000;0.000;2022-11-20T02:44:13;20.30;;;7.82;;
56868;SDS011;42754;0.000;0.000;2022-11-20T02:46:39;15.15;;;8.43;;
56868;SDS011;42754;0.000;0.000;2022-11-20T02:49:06;19.02;;;9.23;;
56868;SDS011;42754;0.000;0.000;2022-11-20T02:51:32;25.35;;;8.85;;
56868;SDS011;42754;0.000;0.000;2022-11-20T02:53:59;18.23;;;9.32;;
56868;SDS011;42754;0.000;0.000;2022-11-20T02:56:25;18.73;;;7.97;;
56868;SDS011;42754;0.000;0.000;2022-11-20T02:58:52;16.67;;;8.07;;
56868;SDS011;42754;0.000;0.000;2022-11-20T03:01:18;14.00;;;7.05;;
56868;SDS011;42754;0.000;0.000;2022-11-20T03:03:44;18.90;;;8.10;;
56868;SDS011;42754;0.000;0.000;2022-11-20T03:06:10;18.15;;;8.73;;
56868;SDS011;42754;0.000;0.000;2022-11-20T03:08:37;17.13;;;8.70;;
56868;SDS011;42754;0.000;0.000;2022-11-20T03:11:04;17.77;;;8.90;;
56868;SDS011;42754;0.000;0.000;2022-11-20T03:13:31;17.15;;;7.60;;
56868;SDS011;42754;0.000;0.000;2022-11-20T03:15:57;22.63;;;9.45;;
56868;SDS011;42754;0.000;0.000;2022-11-20T03:18:24;18.42;;;8.23;;
56868;SDS011;42754;0.000;0.000;2022-11-20T03:20:56;20.50;;;8.70;;
56868;SDS011;42754;0.000;0.000;2022-11-20T03:23:22;16.45;;;7.43;;
56868;SDS011;42754;0.000;0.000;2022-11-20T03:25:48;20.10;;;9.10;;
56868;SDS011;42754;0.000;0.000;2022-11-20T03:28:29;20.52;;;8.48;;
56868;SDS011;42754;0.000;0.000;2022-11-20T03:30:55;20.23;;;8.65;;
56868;SDS011;42754;0.000;0.000;2022-11-20T03:33:21;18.20;;;8.05;;
56868;SDS011;42754;0.000;0.000;2022-11-20T03:35:47;18.08;;;8.70;;
56868;SDS011;42754;0.000;0.000;2022-11-20T03:38:13;17.88;;;8.43;;
56868;SDS011;42754;0.000;0.000;2022-11-20T03:40:39;17.27;;;8.35;;
56868;SDS011;42754;0.000;0.000;2022-11-20T03:43:05;16.88;;;8.48;;
56868;SDS011;42754;0.000;0.000;2022-11-20T03:45:31;16.55;;;8.20;;
56868;SDS011;42754;0.000;0.000;2022-11-20T03:47:57;21.65;;;8.25;;
56868;SDS011;42754;0.000;0.000;2022-11-20T03:50:23;19.23;;;8.98;;
56868;SDS011;42754;0.000;0.000;2022-11-20T03:52:49;17.48;;;8.57;;
56868;SDS011;42754;0.000;0.000;2022-11-20T03:55:15;17.77;;;8.07;;
56868;SDS011;42754;0.000;0.000;2022-11-20T03:57:41;16.08;;;8.50;;
56868;SDS011;42754;0.000;0.000;2022-11-20T04:00:08;19.38;;;8.38;;
56868;SDS011;42754;0.000;0.000;2022-11-20T04:02:35;19.67;;;8.77;;
56868;SDS011;42754;0.000;0.000;2022-11-20T04:05:01;18.15;;;9.23;;
56868;SDS011;42754;0.000;0.000;2022-11-20T04:07:27;17.35;;;7.95;;
56868;SDS011;42754;0.000;0.000;2022-11-20T04:09:53;18.73;;;8.23;;
56868;SDS011;42754;0.000;0.000;2022-11-20T04:12:19;16.60;;;8.95;;
56868;SDS011;42754;0.000;0.000;2022-11-20T04:14:48;18.02;;;8.90;;
56868;SDS011;42754;0.000;0.000;2022-11-20T04:17:14;17.27;;;7.70;;
56868;SDS011;42754;0.000;0.000;2022-11-20T04:19:41;18.30;;;8.40;;
56868;SDS011;42754;0.000;0.000;2022-11-20T04:22:07;16.50;;;7.97;;
56868;SDS011;42754;0.000;0.000;2022-11-20T04:24:33;16.38;;;8.35;;
56868;SDS011;42754;0.000;0.000;2022-11-20T04:26:59;14.45;;;7.78;;
56868;SDS011;42754;0.000;0.000;2022-11-20T04:29:25;20.05;;;9.90;;
56868;SDS011;42754;0.000;0.000;2022-11-20T04:31:51;20.67;;;8.88;;
56868;SDS011;42754;0.000;0.000;2022-11-20T04:34:17;16.48;;;7.95;;
56868;SDS011;42754;0.000;0.000;2022-11-20T04:36:45;16.30;;;8.07;;
56868;SDS011;42754;0.000;0.000;2022-11-20T04:39:12;17.85;;;8.30;;
56868;SDS011;42754;0.000;0.000;2022-11-20T04:41:39;19.58;;;9.18;;
56868;SDS011;42754;0.000;0.000;2022-11-20T04:44:05;17.60;;;8.65;;
56868;SDS011;42754;0.000;0.000;2022-11-20T04:46:41;14.63;;;7.53;;
56868;SDS011;42754;0.000;0.000;2022-11-20T04:49:08;17.35;;;8.25;;
56868;SDS011;42754;0.000;0.000;2022-11-20T04:51:35;17.95;;;7.78;;
56868;SDS011;42754;0.000;0.000;2022-11-20T04:54:01;22.55;;;9.48;;
56868;SDS011;42754;0.000;0.000;2022-11-20T04:56:27;21.17;;;9.25;;
56868;SDS011;42754;0.000;0.000;2022-11-20T04:58:53;15.32;;;8.05;;
56868;SDS011;42754;0.000;0.000;2022-11-20T05:01:21;15.90;;;8.15;;
56868;SDS011;42754;0.000;0.000;2022-11-20T05:03:47;19.30;;;8.73;;
56868;SDS011;42754;0.000;0.000;2022-11-20T05:06:14;16.13;;;8.02;;
56868;SDS011;42754;0.000;0.000;2022-11-20T05:08:41;17.98;;;7.55;;
56868;SDS011;42754;0.000;0.000;2022-11-20T05:11:15;19.90;;;9.05;;
56868;SDS011;42754;0.000;0.000;2022-11-20T05:13:41;21.35;;;8.45;;
56868;SDS011;42754;0.000;0.000;2022-11-20T05:16:09;15.70;;;7.90;;
56868;SDS011;42754;0.000;0.000;2022-11-20T05:18:35;17.88;;;8.50;;
56868;SDS011;42754;0.000;0.000;2022-11-20T05:21:02;18.70;;;8.38;;
56868;SDS011;42754;0.000;0.000;2022-11-20T05:23:28;17.25;;;8.13;;
56868;SDS011;42754;0.000;0.000;2022-11-20T05:25:55;18.08;;;8.23;;
56868;SDS011;42754;0.000;0.000;2022-11-20T05:28:22;18.42;;;8.40;;
56868;SDS011;42754;0.000;0.000;2022-11-20T05:30:48;23.10;;;8.93;;
56868;SDS011;42754;0.000;0.000;2022-11-20T05:33:14;17.38;;;8.77;;
56868;SDS011;42754;0.000;0.000;2022-11-20T05:35:40;15.90;;;8.32;;
56868;SDS011;42754;0.000;0.000;2022-11-20T05:38:06;17.90;;;9.02;;
56868;SDS011;42754;0.000;0.000;2022-11-20T05:40:34;18.95;;;8.25;;
56868;SDS011;42754;0.000;0.000;2022-11-20T05:43:00;19.02;;;8.82;;
56868;SDS011;42754;0.000;0.000;2022-11-20T05:45:27;15.65;;;7.60;;
56868;SDS011;42754;0.000;0.000;2022-11-20T05:47:53;18.85;;;8.40;;
56868;SDS011;42754;0.000;0.000;2022-11-20T05:50:21;17.23;;;7.80;;
56868;SDS011;42754;0.000;0.000;2022-11-20T05:52:47;19.48;;;8.88;;
56868;SDS011;42754;0.000;0.000;2022-11-20T05:55:13;16.38;;;8.35;;
56868;SDS011;42754;0.000;0.000;2022-11-20T05:57:39;17.33;;;8.10;;
56868;SDS011;42754;0.000;0.000;2022-11-20T06:00:05;18.50;;;8.52;;
56868;SDS011;42754;0.000;0.000;2022-11-20T06:02:34;20.40;;;9.35;;
56868;SDS011;42754;0.000;0.000;2022-11-20T06:05:01;17.58;;;9.18;;
56868;SDS011;42754;0.000;0.000;2022-11-20T06:07:27;16.98;;;8.38;;
56868;SDS011;42754;0.000;0.000;2022-11-20T06:09:53;16.65;;;8.70;;
56868;SDS011;42754;0.000;0.000;2022-11-20T06:12:19;18.27;;;9.30;;
56868;SDS011;42754;0.000;0.000;2022-11-20T06:14:46;15.32;;;8.05;;
56868;SDS011;42754;0.000;0.000;2022-11-20T06:17:12;18.20;;;8.02;;
56868;SDS011;42754;0.000;0.000;2022-11-20T06:19:38;15.57;;;9.18;;
56868;SDS011;42754;0.000;0.000;2022-11-20T06:22:04;17.00;;;8.10;;
56868;SDS011;42754;0.000;0.000;2022-11-20T06:24:31;19.05;;;9.27;;
56868;SDS011;42754;0.000;0.000;2022-11-20T06:26:57;20.17;;;8.98;;
56868;SDS011;42754;0.000;0.000;2022-11-20T06:29:23;23.17;;;9.65;;
56868;SDS011;42754;0.000;0.000;2022-11-20T06:31:49;18.23;;;8.63;;
56868;SDS011;42754;0.000;0.000;2022-11-20T06:34:15;21.00;;;10.02;;
56868;SDS011;42754;0.000;0.000;2022-11-20T06:36:42;20.13;;;9.25;;
56868;SDS011;42754;0.000;0.000;2022-11-20T06:39:08;20.60;;;10.52;;
56868;SDS011;42754;0.000;0.000;2022-11-20T06:41:35;20.92;;;9.50;;
56868;SDS011;42754;0.000;0.000;2022-11-20T06:44:01;20.90;;;10.07;;
56868;SDS011;42754;0.000;0.000;2022-11-20T06:46:29;23.67;;;9.95;;
56868;SDS011;42754;0.000;0.000;2022-11-20T06:48:55;19.35;;;9.25;;
56868;SDS011;42754;0.000;0.000;2022-11-20T06:51:24;18.55;;;9.50;;
56868;SDS011;42754;0.000;0.000;2022-11-20T06:53:50;20.42;;;9.30;;
56868;SDS011;42754;0.000;0.000;2022-11-20T06:56:16;18.85;;;9.88;;
56868;SDS011;42754;0.000;0.000;2022-11-20T06:58:43;19.58;;;9.10;;
56868;SDS011;42754;0.000;0.000;2022-11-20T07:01:10;20.90;;;8.45;;
56868;SDS011;42754;0.000;0.000;2022-11-20T07:03:36;19.92;;;9.10;;
56868;SDS011;42754;0.000;0.000;2022-11-20T07:06:03;20.45;;;8.57;;
56868;SDS011;42754;0.000;0.000;2022-11-20T07:08:31;16.83;;;9.30;;
56868;SDS011;42754;0.000;0.000;2022-11-20T07:11:02;21.98;;;10.50;;
56868;SDS011;42754;0.000;0.000;2022-11-20T07:13:28;19.92;;;9.35;;
56868;SDS011;42754;0.000;0.000;2022-11-20T07:15:55;20.65;;;8.77;;
56868;SDS011;42754;0.000;0.000;2022-11-20T07:18:24;20.40;;;9.73;;
56868;SDS011;42754;0.000;0.000;2022-11-20T07:20:50;20.88;;;9.50;;
56868;SDS011;42754;0.000;0.000;2022-11-20T07:23:16;21.15;;;9.15;;
56868;SDS011;42754;0.000;0.000;2022-11-20T07:25:43;21.05;;;9.27;;
56868;SDS011;42754;0.000;0.000;2022-11-20T07:28:09;18.73;;;8.65;;
56868;SDS011;42754;0.000;0.000;2022-11-20T07:30:36;22.48;;;9.57;;
56868;SDS011;42754;0.000;0.000;2022-11-20T07:33:02;17.80;;;8.07;;
56868;SDS011;42754;0.000;0.000;2022-11-20T07:35:28;18.95;;;8.63;;
56868;SDS011;42754;0.000;0.000;2022-11-20T07:37:54;21.08;;;9.77;;
56868;SDS011;42754;0.000;0.000;2022-11-20T07:40:21;22.75;;;9.38;;
56868;SDS011;42754;0.000;0.000;2022-11-20T07:42:50;19.35;;;9.40;;
56868;SDS011;42754;0.000;0.000;2022-11-20T07:45:17;17.77;;;9.02;;
56868;SDS011;42754;0.000;0.000;2022-11-20T07:47:43;20.98;;;9.73;;
56868;SDS011;42754;0.000;0.000;2022-11-20T07:50:10;20.10;;;9.00;;
56868;SDS011;42754;0.000;0.000;2022-11-20T07:52:36;22.10;;;10.25;;
56868;SDS011;42754;0.000;0.000;2022-11-20T07:55:02;16.48;;;8.55;;
56868;SDS011;42754;0.000;0.000;2022-11-20T07:57:28;18.25;;;8.80;;
56868;SDS011;42754;0.000;0.000;2022-11-20T07:59:55;19.50;;;10.77;;
56868;SDS011;42754;0.000;0.000;2022-11-20T08:02:21;24.60;;;11.50;;
56868;SDS011;42754;0.000;0.000;2022-11-20T08:04:47;17.38;;;9.23;;
56868;SDS011;42754;0.000;0.000;2022-11-20T08:07:14;19.05;;;8.88;;
56868;SDS011;42754;0.000;0.000;2022-11-20T08:09:41;19.55;;;9.38;;
56868;SDS011;42754;0.000;0.000;2022-11-20T08:12:07;17.63;;;8.48;;
56868;SDS011;42754;0.000;0.000;2022-11-20T08:14:53;14.13;;;7.35;;
56868;SDS011;42754;0.000;0.000;2022-11-20T08:17:20;15.52;;;8.27;;
56868;SDS011;42754;0.000;0.000;2022-11-20T08:19:50;16.02;;;7.82;;
56868;SDS011;42754;0.000;0.000;2022-11-20T08:22:16;15.60;;;7.75;;
56868;SDS011;42754;0.000;0.000;2022-11-20T08:24:42;14.48;;;7.10;;
56868;SDS011;42754;0.000;0.000;2022-11-20T08:27:08;15.13;;;7.57;;
56868;SDS011;42754;0.000;0.000;2022-11-20T08:29:34;16.65;;;7.82;;
56868;SDS011;42754;0.000;0.000;2022-11-20T08:32:00;13.77;;;7.28;;
56868;SDS011;42754;0.000;0.000;2022-11-20T08:34:26;13.98;;;8.05;;
56868;SDS011;42754;0.000;0.000;2022-11-20T08:36:52;19.85;;;8.52;;
56868;SDS011;42754;0.000;0.000;2022-11-20T08:39:18;14.02;;;7.15;;
56868;SDS011;42754;0.000;0.000;2022-11-20T08:41:45;16.23;;;9.13;;
56868;SDS011;42754;0.000;0.000;2022-11-20T08:44:11;24.25;;;12.75;;
56868;SDS011;42754;0.000;0.000;2022-11-20T08:46:41;25.40;;;12.10;;
56868;SDS011;42754;0.000;0.000;2022-11-20T08:49:09;29.63;;;14.55;;
56868;SDS011;42754;0.000;0.000;2022-11-20T08:51:36;29.80;;;15.00;;
56868;SDS011;42754;0.000;0.000;2022-11-20T08:54:02;21.63;;;11.63;;
56868;SDS011;42754;0.000;0.000;2022-11-20T08:56:28;23.40;;;11.10;;
56868;SDS011;42754;0.000;0.000;2022-11-20T08:58:54;20.90;;;10.55;;
56868;SDS011;42754;0.000;0.000;2022-11-20T09:01:21;20.13;;;11.43;;
56868;SDS011;42754;0.000;0.000;2022-11-20T09:03:48;20.77;;;11.52;;
56868;SDS011;42754;0.000;0.000;2022-11-20T09:06:14;21.58;;;11.32;;
56868;SDS011;42754;0.000;0.000;2022-11-20T09:08:41;25.98;;;12.10;;
56868;SDS011;42754;0.000;0.000;2022-11-20T09:11:08;21.08;;;10.20;;
56868;SDS011;42754;0.000;0.000;2022-11-20T09:13:34;14.88;;;9.02;;
56868;SDS011;42754;0.000;0.000;2022-11-20T09:16:02;20.60;;;10.32;;
56868;SDS011;42754;0.000;0.000;2022-11-20T09:18:28;19.02;;;10.32;;
56868;SDS011;42754;0.000;0.000;2022-11-20T09:21:00;20.25;;;11.63;;
56868;SDS011;42754;0.000;0.000;2022-11-20T09:23:26;17.90;;;9.95;;
56868;SDS011;42754;0.000;0.000;2022-11-20T09:25:54;18.50;;;10.48;;
56868;SDS011;42754;0.000;0.000;2022-11-20T09:28:24;22.52;;;12.48;;
56868;SDS011;42754;0.000;0.000;2022-11-20T09:33:20;24.42;;;13.77;;
56868;SDS011;42754;0.000;0.000;2022-11-20T09:35:47;20.67;;;10.60;;
56868;SDS011;42754;0.000;0.000;2022-11-20T09:38:13;20.73;;;11.80;;
56868;SDS011;42754;0.000;0.000;2022-11-20T09:56:28;43.95;;;24.00;;
56868;SDS011;42754;0.000;0.000;2022-11-20T09:58:55;47.42;;;24.05;;
56868;SDS011;42754;0.000;0.000;2022-11-20T10:01:35;42.78;;;22.23;;
56868;SDS011;42754;0.000;0.000;2022-11-20T10:06:31;40.13;;;20.58;;
56868;SDS011;42754;0.000;0.000;2022-11-20T10:12:20;38.67;;;19.42;;
56868;SDS011;42754;0.000;0.000;2022-11-20T10:19:47;39.00;;;19.58;;
56868;SDS011;42754;0.000;0.000;2022-11-20T10:30:42;42.65;;;22.25;;
56868;SDS011;42754;0.000;0.000;2022-11-20T10:33:17;43.75;;;23.27;;
56868;SDS011;42754;0.000;0.000;2022-11-20T10:35:45;40.72;;;21.13;;
56868;SDS011;42754;0.000;0.000;2022-11-20T10:38:19;40.08;;;21.25;;
56868;SDS011;42754;0.000;0.000;2022-11-20T10:40:49;45.08;;;23.85;;
56868;SDS011;42754;0.000;0.000;2022-11-20T10:43:19;46.67;;;23.23;;
56868;SDS011;42754;0.000;0.000;2022-11-20T10:45:53;47.65;;;23.33;;
56868;SDS011;42754;0.000;0.000;2022-11-20T10:48:27;42.58;;;22.35;;
56868;SDS011;42754;0.000;0.000;2022-11-20T11:01:26;48.38;;;22.38;;
56868;SDS011;42754;0.000;0.000;2022-11-20T11:03:53;36.90;;;19.48;;
56868;SDS011;42754;0.000;0.000;2022-11-20T11:06:36;41.20;;;21.20;;
56868;SDS011;42754;0.000;0.000;2022-11-20T11:09:13;36.78;;;19.65;;
56868;SDS011;42754;0.000;0.000;2022-11-20T11:11:41;34.13;;;19.10;;
56868;SDS011;42754;0.000;0.000;2022-11-20T11:14:11;38.13;;;18.65;;
56868;SDS011;42754;0.000;0.000;2022-11-20T11:16:48;40.50;;;20.52;;
56868;SDS011;42754;0.000;0.000;2022-11-20T11:19:16;36.78;;;20.15;;
56868;SDS011;42754;0.000;0.000;2022-11-20T11:21:56;36.65;;;18.50;;
56868;SDS011;42754;0.000;0.000;2022-11-20T11:24:24;34.72;;;18.00;;
56868;SDS011;42754;0.000;0.000;2022-11-20T11:27:12;34.90;;;16.98;;
56868;SDS011;42754;0.000;0.000;2022-11-20T11:29:36;35.88;;;16.88;;
56868;SDS011;42754;0.000;0.000;2022-11-20T11:32:21;33.42;;;17.65;;
56868;SDS011;42754;0.000;0.000;2022-11-20T11:35:01;32.60;;;16.48;;
56868;SDS011;42754;0.000;0.000;2022-11-20T11:37:32;36.15;;;19.08;;
56868;SDS011;42754;0.000;0.000;2022-11-20T11:42:28;32.55;;;16.65;;
56868;SDS011;42754;0.000;0.000;2022-11-20T11:44:55;35.30;;;18.50;;
56868;SDS011;42754;0.000;0.000;2022-11-20T11:53:29;40.67;;;20.50;;
56868;SDS011;42754;0.000;0.000;2022-11-20T11:55:37;46.92;;;19.52;;
56868;SDS011;42754;0.000;0.000;2022-11-20T11:58:17;36.45;;;18.48;;
56868;SDS011;42754;0.000;0.000;2022-11-20T12:01:00;41.10;;;19.73;;
56868;SDS011;42754;0.000;0.000;2022-11-20T12:03:29;38.13;;;20.27;;
56868;SDS011;42754;0.000;0.000;2022-11-20T12:06:06;46.75;;;22.90;;
56868;SDS011;42754;0.000;0.000;2022-11-20T12:08:40;38.17;;;19.77;;
56868;SDS011;42754;0.000;0.000;2022-11-20T12:16:23;41.63;;;20.58;;
56868;SDS011;42754;0.000;0.000;2022-11-20T12:18:50;39.92;;;19.83;;
56868;SDS011;42754;0.000;0.000;2022-11-20T12:21:18;42.22;;;21.20;;
56868;SDS011;42754;0.000;0.000;2022-11-20T12:29:02;41.40;;;21.52;;
56868;SDS011;42754;0.000;0.000;2022-11-20T12:36:48;43.33;;;20.02;;
56868;SDS011;42754;0.000;0.000;2022-11-20T12:39:25;41.53;;;21.67;;
56868;SDS011;42754;0.000;0.000;2022-11-20T12:42:18;44.30;;;22.00;;
56868;SDS011;42754;0.000;0.000;2022-11-20T12:52:41;46.17;;;22.73;;
56868;SDS011;42754;0.000;0.000;2022-11-20T13:00:18;41.10;;;21.55;;
56868;SDS011;42754;0.000;0.000;2022-11-20T13:07:37;39.72;;;20.13;;
56868;SDS011;42754;0.000;0.000;2022-11-20T13:10:04;39.90;;;19.42;;
56868;SDS011;42754;0.000;0.000;2022-11-20T13:12:36;42.58;;;19.85;;
56868;SDS011;42754;0.000;0.000;2022-11-20T13:18:02;38.90;;;19.38;;
56868;SDS011;42754;0.000;0.000;2022-11-20T13:20:27;40.10;;;19.00;;
56868;SDS011;42754;0.000;0.000;2022-11-20T13:25:30;38.15;;;18.88;;
56868;SDS011;42754;0.000;0.000;2022-11-20T13:27:58;42.35;;;19.13;;
56868;SDS011;42754;0.000;0.000;2022-11-20T13:30:26;49.78;;;21.08;;
56868;SDS011;42754;0.000;0.000;2022-11-20T13:35:32;44.83;;;21.58;;
56868;SDS011;42754;0.000;0.000;2022-11-20T13:38:00;45.90;;;23.17;;
56868;SDS011;42754;0.000;0.000;2022-11-20T13:40:32;47.60;;;22.20;;
56868;SDS011;42754;0.000;0.000;2022-11-20T13:45:42;46.72;;;24.02;;
56868;SDS011;42754;0.000;0.000;2022-11-20T13:48:21;53.95;;;25.98;;
56868;SDS011;42754;0.000;0.000;2022-11-20T13:51:06;53.78;;;24.45;;
56868;SDS011;42754;0.000;0.000;2022-11-20T13:56:22;89.78;;;34.78;;
56868;SDS011;42754;0.000;0.000;2022-11-20T13:59:09;60.28;;;25.38;;
56868;SDS011;42754;0.000;0.000;2022-11-20T14:01:44;57.60;;;26.77;;
56868;SDS011;42754;0.000;0.000;2022-11-20T14:04:18;49.22;;;23.27;;
56868;SDS011;42754;0.000;0.000;2022-11-20T14:06:45;47.05;;;23.45;;
56868;SDS011;42754;0.000;0.000;2022-11-20T14:09:13;49.25;;;25.20;;
56868;SDS011;42754;0.000;0.000;2022-11-20T14:11:49;59.25;;;26.13;;
56868;SDS011;42754;0.000;0.000;2022-11-20T14:14:17;53.85;;;27.20;;
56868;SDS011;42754;0.000;0.000;2022-11-20T14:16:44;56.08;;;28.30;;
56868;SDS011;42754;0.000;0.000;2022-11-20T14:21:43;60.63;;;30.08;;
56868;SDS011;42754;0.000;0.000;2022-11-20T14:24:13;55.97;;;28.05;;
56868;SDS011;42754;0.000;0.000;2022-11-20T14:26:43;71.18;;;34.92;;
56868;SDS011;42754;0.000;0.000;2022-11-20T14:29:13;58.67;;;29.70;;
56868;SDS011;42754;0.000;0.000;2022-11-20T14:31:40;73.97;;;32.17;;
56868;SDS011;42754;0.000;0.000;2022-11-20T14:34:10;61.35;;;29.45;;
56868;SDS011;42754;0.000;0.000;2022-11-20T14:36:39;66.20;;;32.58;;
56868;SDS011;42754;0.000;0.000;2022-11-20T14:39:07;58.28;;;27.52;;
56868;SDS011;42754;0.000;0.000;2022-11-20T14:41:36;59.83;;;27.95;;
56868;SDS011;42754;0.000;0.000;2022-11-20T14:44:02;59.58;;;28.40;;
56868;SDS011;42754;0.000;0.000;2022-11-20T14:46:29;55.95;;;26.67;;
56868;SDS011;42754;0.000;0.000;2022-11-20T14:48:56;62.60;;;28.98;;
56868;SDS011;42754;0.000;0.000;2022-11-20T14:51:30;69.82;;;28.70;;
56868;SDS011;42754;0.000;0.000;2022-11-20T14:54:10;70.75;;;30.45;;
56868;SDS011;42754;0.000;0.000;2022-11-20T14:56:36;63.63;;;28.00;;
56868;SDS011;42754;0.000;0.000;2022-11-20T14:59:02;66.85;;;28.95;;
56868;SDS011;42754;0.000;0.000;2022-11-20T15:01:29;65.03;;;28.88;;
56868;SDS011;42754;0.000;0.000;2022-11-20T15:03:59;60.05;;;29.70;;
56868;SDS011;42754;0.000;0.000;2022-11-20T15:06:26;61.75;;;27.65;;
56868;SDS011;42754;0.000;0.000;2022-11-20T15:08:52;66.97;;;31.20;;
56868;SDS011;42754;0.000;0.000;2022-11-20T15:11:19;67.28;;;30.75;;
56868;SDS011;42754;0.000;0.000;2022-11-20T15:13:48;75.30;;;33.15;;
56868;SDS011;42754;0.000;0.000;2022-11-20T15:16:17;79.10;;;33.13;;
56868;SDS011;42754;0.000;0.000;2022-11-20T15:18:44;84.20;;;35.28;;
56868;SDS011;42754;0.000;0.000;2022-11-20T15:21:11;78.10;;;33.75;;
56868;SDS011;42754;0.000;0.000;2022-11-20T15:23:37;67.35;;;29.55;;
56868;SDS011;42754;0.000;0.000;2022-11-20T15:26:08;79.95;;;35.05;;
56868;SDS011;42754;0.000;0.000;2022-11-20T15:31:02;81.38;;;35.50;;
56868;SDS011;42754;0.000;0.000;2022-11-20T15:33:28;78.30;;;34.03;;
56868;SDS011;42754;0.000;0.000;2022-11-20T15:35:55;88.78;;;34.40;;
56868;SDS011;42754;0.000;0.000;2022-11-20T15:38:21;69.90;;;30.00;;
56868;SDS011;42754;0.000;0.000;2022-11-20T15:40:48;94.00;;;38.85;;
56868;SDS011;42754;0.000;0.000;2022-11-20T15:43:14;83.57;;;35.20;;
56868;SDS011;42754;0.000;0.000;2022-11-20T15:45:47;84.63;;;35.05;;
56868;SDS011;42754;0.000;0.000;2022-11-20T15:48:16;86.95;;;36.53;;
56868;SDS011;42754;0.000;0.000;2022-11-20T15:50:51;87.50;;;34.70;;
56868;SDS011;42754;0.000;0.000;2022-11-20T15:53:18;93.85;;;37.97;;
56868;SDS011;42754;0.000;0.000;2022-11-20T15:55:44;104.50;;;37.90;;
56868;SDS011;42754;0.000;0.000;2022-11-20T15:58:10;81.97;;;35.42;;
56868;SDS011;42754;0.000;0.000;2022-11-20T16:00:38;85.40;;;33.72;;
56868;SDS011;42754;0.000;0.000;2022-11-20T16:03:04;93.70;;;37.92;;
56868;SDS011;42754;0.000;0.000;2022-11-20T16:05:30;105.88;;;38.53;;
56868;SDS011;42754;0.000;0.000;2022-11-20T16:07:56;89.18;;;36.78;;
56868;SDS011;42754;0.000;0.000;2022-11-20T16:10:24;86.28;;;34.45;;
56868;SDS011;42754;0.000;0.000;2022-11-20T16:12:50;85.93;;;32.72;;
56868;SDS011;42754;0.000;0.000;2022-11-20T16:15:34;94.88;;;35.03;;
56868;SDS011;42754;0.000;0.000;2022-11-20T16:18:17;90.50;;;34.28;;
56868;SDS011;42754;0.000;0.000;2022-11-20T16:20:44;82.43;;;29.05;;
56868;SDS011;42754;0.000;0.000;2022-11-20T16:23:11;77.07;;;30.73;;
56868;SDS011;42754;0.000;0.000;2022-11-20T16:25:38;87.78;;;35.05;;
56868;SDS011;42754;0.000;0.000;2022-11-20T16:28:04;84.22;;;32.83;;
56868;SDS011;42754;0.000;0.000;2022-11-20T16:30:31;81.75;;;31.98;;
56868;SDS011;42754;0.000;0.000;2022-11-20T16:32:59;81.70;;;33.40;;
56868;SDS011;42754;0.000;0.000;2022-11-20T16:35:25;84.63;;;32.45;;
56868;SDS011;42754;0.000;0.000;2022-11-20T16:37:52;80.97;;;30.77;;
56868;SDS011;42754;0.000;0.000;2022-11-20T16:40:18;89.53;;;33.65;;